Time;durP1;ratioP1;P1;durP2;ratioP2;P2;SDS_P1;SDS_P2;PMS_P1;PMS_P2;Temp;Humidity;BMP_temperature;BMP_pressure;BME280_temperature;BME280_humidity;BME280_pressure;Samples;Min_cycle;Max_cycle;Signal;HPM_P1;HPM_P2
2021/07/17 00:00:10;;;;;;;;;;;17.30;99.90;;;;;;5048107;28;20138;-90
2021/07/17 00:02:36;;;;;;;;;;;17.20;99.90;;;;;;5029785;28;19999;-91
2021/07/17 00:05:05;;;;;;;;;;;17.20;99.90;;;;;;5047455;28;20023;-91
2021/07/17 00:07:30;;;;;;;;;;;17.30;99.90;;;;;;5048108;28;19925;-92
2021/07/17 00:09:56;;;;;;;;;;;17.30;99.90;;;;;;5048549;28;19994;-91
2021/07/17 00:12:22;;;;;;;;;;;17.30;99.90;;;;;;5048361;28;19936;-92
2021/07/17 00:14:47;;;;;;;;;;;17.30;99.90;;;;;;5052137;28;19929;-90
2021/07/17 00:17:14;;;;;;;;;;;17.40;99.90;;;;;;5051745;28;19959;-90
2021/07/17 00:19:40;;;;;;;;;;;17.30;99.90;;;;;;5052345;28;19925;-90
2021/07/17 00:22:06;;;;;;;;;;;17.40;99.90;;;;;;5051945;28;19928;-92
2021/07/17 00:24:32;;;;;;;;;;;17.30;99.90;;;;;;5068558;28;20377;-90
2021/07/17 00:26:57;;;;;;;;;;;17.40;99.90;;;;;;5038850;28;20082;-92
2021/07/17 00:29:23;;;;;;;;;;;17.40;99.90;;;;;;5053400;28;20440;-93
2021/07/17 00:31:49;;;;;;;;;;;17.40;99.90;;;;;;5050439;28;19925;-94
2021/07/17 00:34:15;;;;;;;;;;;17.40;99.90;;;;;;5052317;28;19929;-91
2021/07/17 00:36:40;;;;;;;;;;;17.40;99.90;;;;;;5052474;28;20019;-89
2021/07/17 00:39:06;;;;;;;;;;;17.40;99.90;;;;;;5052413;28;20337;-92
2021/07/17 00:41:32;;;;;;;;;;;17.40;99.90;;;;;;5055473;28;19951;-91
2021/07/17 00:43:57;;;;;;;;;;;17.40;99.90;;;;;;5051179;28;20742;-91
2021/07/17 00:46:24;;;;;;;;;;;17.40;99.90;;;;;;5055358;28;19932;-92
2021/07/17 00:48:50;;;;;;;;;;;17.40;99.90;;;;;;5069984;28;19932;-91
2021/07/17 00:51:16;;;;;;;;;;;17.40;99.90;;;;;;5050706;28;20555;-91
2021/07/17 00:53:42;;;;;;;;;;;17.40;99.90;;;;;;5049557;28;19936;-91
2021/07/17 00:56:08;;;;;;;;;;;17.40;99.90;;;;;;5054064;28;19929;-91
2021/07/17 00:58:36;;;;;;;;;;;17.40;99.90;;;;;;5034831;28;19932;-90
2021/07/17 01:01:02;;;;;;;;;;;17.40;99.90;;;;;;5055248;28;20474;-91
2021/07/17 01:03:29;;;;;;;;;;;17.40;99.90;;;;;;5062873;28;19928;-91
2021/07/17 01:05:55;;;;;;;;;;;17.40;99.90;;;;;;5054933;28;19925;-91
2021/07/17 01:08:21;;;;;;;;;;;17.50;99.90;;;;;;5034552;28;19924;-91
2021/07/17 01:10:47;;;;;;;;;;;17.60;99.90;;;;;;5064097;28;20384;-92
2021/07/17 01:13:13;;;;;;;;;;;17.60;99.90;;;;;;5065527;28;19931;-93
2021/07/17 01:15:38;;;;;;;;;;;17.60;99.90;;;;;;5064677;28;19928;-91
2021/07/17 01:18:05;;;;;;;;;;;17.60;99.90;;;;;;5064931;28;19936;-94
2021/07/17 01:20:31;;;;;;;;;;;17.60;99.90;;;;;;5051860;28;19967;-91
2021/07/17 01:22:56;;;;;;;;;;;17.70;99.90;;;;;;5066669;28;19971;-91
2021/07/17 01:25:24;;;;;;;;;;;17.60;99.90;;;;;;5060534;28;19970;-91
2021/07/17 01:27:51;;;;;;;;;;;17.60;99.90;;;;;;5066111;28;19929;-92
2021/07/17 01:30:18;;;;;;;;;;;17.60;99.90;;;;;;5074410;28;20427;-92
2021/07/17 01:32:44;;;;;;;;;;;17.60;99.90;;;;;;5043317;28;19956;-90
2021/07/17 01:35:10;;;;;;;;;;;17.60;99.90;;;;;;5070583;28;19968;-91
2021/07/17 01:37:35;;;;;;;;;;;17.60;99.90;;;;;;5076146;28;20364;-92
2021/07/17 01:40:04;;;;;;;;;;;17.60;99.90;;;;;;5064163;28;19928;-91
2021/07/17 01:42:30;;;;;;;;;;;17.60;99.90;;;;;;5055715;28;19929;-92
2021/07/17 01:44:56;;;;;;;;;;;17.60;99.90;;;;;;5064577;28;19925;-93
2021/07/17 01:47:25;;;;;;;;;;;17.60;99.90;;;;;;5074028;28;19939;-94
2021/07/17 01:49:50;;;;;;;;;;;17.70;99.90;;;;;;5072840;28;19928;-91
2021/07/17 01:52:16;;;;;;;;;;;17.70;99.90;;;;;;5073638;28;20371;-91
2021/07/17 01:54:42;;;;;;;;;;;17.60;99.90;;;;;;5091386;28;19939;-91
2021/07/17 01:57:08;;;;;;;;;;;17.60;99.90;;;;;;5072274;28;19928;-91
2021/07/17 01:59:37;;;;;;;;;;;17.60;99.90;;;;;;5073215;28;20296;-92
2021/07/17 02:02:06;;;;;;;;;;;17.70;99.90;;;;;;5072857;28;20167;-92
2021/07/17 02:04:32;;;;;;;;;;;17.60;99.90;;;;;;5083653;28;19967;-91
2021/07/17 02:06:58;;;;;;;;;;;17.60;99.90;;;;;;5086506;28;19975;-92
2021/07/17 02:09:23;;;;;;;;;;;17.60;99.90;;;;;;5073268;28;20420;-91
2021/07/17 02:11:49;;;;;;;;;;;17.60;99.90;;;;;;5072533;28;19931;-90
2021/07/17 02:14:15;;;;;;;;;;;17.60;99.90;;;;;;5073022;28;19931;-90
2021/07/17 02:16:40;;;;;;;;;;;17.60;99.90;;;;;;5073069;28;20280;-90
2021/07/17 02:19:12;;;;;;;;;;;17.60;99.90;;;;;;5072403;28;20375;-89
2021/07/17 02:21:38;;;;;;;;;;;17.60;99.90;;;;;;5077886;28;19928;-90
2021/07/17 02:24:04;;;;;;;;;;;17.50;99.90;;;;;;5090151;28;19924;-90
2021/07/17 02:26:30;;;;;;;;;;;17.50;99.90;;;;;;5088872;28;19924;-90
2021/07/17 02:28:56;;;;;;;;;;;17.50;99.90;;;;;;5089869;28;20443;-89
2021/07/17 02:31:21;;;;;;;;;;;17.50;99.90;;;;;;5072676;28;19930;-89
2021/07/17 02:33:47;;;;;;;;;;;17.50;99.90;;;;;;5089510;28;20433;-88
2021/07/17 02:36:13;;;;;;;;;;;17.50;99.90;;;;;;5063827;28;19963;-89
2021/07/17 02:38:38;;;;;;;;;;;17.50;99.90;;;;;;5072668;28;20299;-89
2021/07/17 02:41:04;;;;;;;;;;;17.50;99.90;;;;;;5072311;28;19969;-91
2021/07/17 02:43:30;;;;;;;;;;;17.50;99.90;;;;;;5091070;28;19958;-90
2021/07/17 02:45:55;;;;;;;;;;;17.50;99.90;;;;;;5089143;28;20014;-90
2021/07/17 02:48:21;;;;;;;;;;;17.50;99.90;;;;;;5089886;28;19924;-90
2021/07/17 02:50:49;;;;;;;;;;;17.50;99.90;;;;;;5056660;28;20402;-90
2021/07/17 02:53:15;;;;;;;;;;;17.50;99.90;;;;;;5072455;28;19928;-91
2021/07/17 02:55:40;;;;;;;;;;;17.50;99.90;;;;;;5073105;28;20325;-91
2021/07/17 02:58:06;;;;;;;;;;;17.50;99.90;;;;;;5090145;28;19928;-89
2021/07/17 03:00:35;;;;;;;;;;;17.50;99.90;;;;;;5072710;28;19934;-89
2021/07/17 03:03:09;;;;;;;;;;;17.40;99.90;;;;;;5072874;28;20398;-90
2021/07/17 03:05:35;;;;;;;;;;;17.40;99.90;;;;;;5072495;28;19928;-90
2021/07/17 03:08:01;;;;;;;;;;;17.40;99.90;;;;;;5072219;28;19924;-92
2021/07/17 03:10:28;;;;;;;;;;;17.40;99.90;;;;;;5074700;28;19959;-94
2021/07/17 03:12:53;;;;;;;;;;;17.40;99.90;;;;;;5073319;28;20331;-89
2021/07/17 03:15:19;;;;;;;;;;;17.40;99.90;;;;;;5073388;28;20394;-90
2021/07/17 03:17:45;;;;;;;;;;;17.40;99.90;;;;;;5055965;28;19923;-89
2021/07/17 03:20:12;;;;;;;;;;;17.40;99.90;;;;;;5072660;28;19920;-90
2021/07/17 03:22:38;;;;;;;;;;;17.30;99.90;;;;;;5091580;28;20081;-90
2021/07/17 03:25:04;;;;;;;;;;;17.30;99.90;;;;;;5056474;28;19973;-90
2021/07/17 03:27:30;;;;;;;;;;;17.30;99.90;;;;;;5091111;28;19924;-90
2021/07/17 03:30:00;;;;;;;;;;;17.30;99.90;;;;;;5057253;28;20352;-91
2021/07/17 03:32:26;;;;;;;;;;;17.30;99.90;;;;;;5057256;28;20318;-90
2021/07/17 03:34:53;;;;;;;;;;;17.20;99.90;;;;;;5073489;28;19933;-91
2021/07/17 03:37:19;;;;;;;;;;;17.30;99.90;;;;;;5056840;28;20337;-89
2021/07/17 03:39:45;;;;;;;;;;;17.30;99.90;;;;;;5073426;28;20003;-89
2021/07/17 03:42:10;;;;;;;;;;;17.20;99.90;;;;;;5038582;28;19935;-90
2021/07/17 03:44:36;;;;;;;;;;;17.20;99.90;;;;;;5055682;28;19927;-90
2021/07/17 03:47:02;;;;;;;;;;;17.20;99.90;;;;;;5068613;28;19928;-90
2021/07/17 03:49:28;;;;;;;;;;;17.30;99.90;;;;;;5092370;28;19928;-90
2021/07/17 03:51:54;;;;;;;;;;;17.30;99.90;;;;;;5075265;28;20287;-90
2021/07/17 03:54:19;;;;;;;;;;;17.30;99.90;;;;;;5075253;28;19924;-89
2021/07/17 03:56:45;;;;;;;;;;;17.20;99.90;;;;;;5075813;28;19931;-91
2021/07/17 03:59:11;;;;;;;;;;;17.30;99.90;;;;;;5074762;28;19924;-90
2021/07/17 04:01:38;;;;;;;;;;;17.30;99.90;;;;;;5075976;28;19947;-90
2021/07/17 04:04:04;;;;;;;;;;;17.30;99.90;;;;;;5055051;28;20007;-90
2021/07/17 04:06:30;;;;;;;;;;;17.30;99.90;;;;;;5085697;28;19924;-90
2021/07/17 04:08:56;;;;;;;;;;;17.30;99.90;;;;;;5075233;28;19924;-88
2021/07/17 04:11:22;;;;;;;;;;;17.30;99.90;;;;;;5092035;28;19973;-91
2021/07/17 04:13:47;;;;;;;;;;;17.40;99.90;;;;;;5072366;28;19928;-91
2021/07/17 04:16:13;;;;;;;;;;;17.40;99.90;;;;;;5074912;28;20506;-92
2021/07/17 04:18:39;;;;;;;;;;;17.40;99.90;;;;;;5070409;28;19924;-92
2021/07/17 04:21:05;;;;;;;;;;;17.50;99.90;;;;;;5059202;28;19924;-93
2021/07/17 04:23:31;;;;;;;;;;;17.50;99.90;;;;;;5079675;28;19930;-92
2021/07/17 04:25:56;;;;;;;;;;;17.50;99.90;;;;;;5067316;28;20372;-92
2021/07/17 04:28:22;;;;;;;;;;;17.50;99.90;;;;;;5072302;28;20410;-93
2021/07/17 04:30:48;;;;;;;;;;;17.50;99.90;;;;;;5059793;28;19928;-93
2021/07/17 04:33:13;;;;;;;;;;;17.50;99.90;;;;;;5092961;28;19931;-94
2021/07/17 04:35:41;;;;;;;;;;;17.50;99.90;;;;;;5065457;28;19924;-93
2021/07/17 04:38:07;;;;;;;;;;;17.50;99.90;;;;;;5089651;28;19928;-92
2021/07/17 04:40:33;;;;;;;;;;;17.50;99.90;;;;;;5093412;28;20281;-93
2021/07/17 04:42:58;;;;;;;;;;;17.50;99.90;;;;;;5061250;28;19935;-90
2021/07/17 04:45:24;;;;;;;;;;;17.50;99.90;;;;;;5074591;28;20383;-91
2021/07/17 04:47:50;;;;;;;;;;;17.60;99.90;;;;;;5058558;28;19924;-92
2021/07/17 04:50:15;;;;;;;;;;;17.60;99.90;;;;;;5072198;28;20026;-91
2021/07/17 04:52:41;;;;;;;;;;;17.60;99.90;;;;;;5058233;28;19928;-90
2021/07/17 04:55:07;;;;;;;;;;;17.60;99.90;;;;;;5074587;28;19954;-91
2021/07/17 04:57:33;;;;;;;;;;;17.70;99.90;;;;;;5075828;28;19932;-90
2021/07/17 04:59:58;;;;;;;;;;;17.70;99.90;;;;;;5082596;28;20279;-91
2021/07/17 05:02:24;;;;;;;;;;;17.70;99.90;;;;;;5072327;28;19924;-94
2021/07/17 05:04:50;;;;;;;;;;;17.70;99.90;;;;;;5059043;28;20276;-90
2021/07/17 05:07:16;;;;;;;;;;;17.70;99.90;;;;;;5071472;28;19939;-89
2021/07/17 05:09:41;;;;;;;;;;;17.80;99.90;;;;;;5075577;28;19925;-90
2021/07/17 05:12:07;;;;;;;;;;;17.80;99.90;;;;;;5074844;28;19928;-89
2021/07/17 05:14:33;;;;;;;;;;;17.80;99.90;;;;;;5084420;28;19924;-89
2021/07/17 05:16:59;;;;;;;;;;;17.80;99.90;;;;;;5092580;28;19935;-90
2021/07/17 05:19:24;;;;;;;;;;;17.80;99.90;;;;;;5092040;28;19924;-89
2021/07/17 05:21:50;;;;;;;;;;;17.80;99.90;;;;;;5060530;28;19928;-91
2021/07/17 05:24:16;;;;;;;;;;;17.90;99.90;;;;;;5069363;28;19946;-90
2021/07/17 05:26:42;;;;;;;;;;;17.90;99.90;;;;;;5046349;28;19928;-89
2021/07/17 05:29:07;;;;;;;;;;;17.90;99.90;;;;;;5083607;28;19952;-89
2021/07/17 05:31:33;;;;;;;;;;;17.90;99.90;;;;;;5068605;28;19928;-91
2021/07/17 05:33:59;;;;;;;;;;;18.00;99.90;;;;;;5083836;28;20046;-90
2021/07/17 05:36:24;;;;;;;;;;;18.00;99.90;;;;;;5075122;28;19925;-88
2021/07/17 05:38:50;;;;;;;;;;;18.00;99.90;;;;;;5092460;28;20411;-90
2021/07/17 05:41:16;;;;;;;;;;;18.00;99.90;;;;;;5101955;28;19930;-89
2021/07/17 05:43:41;;;;;;;;;;;18.00;99.90;;;;;;5075141;28;20023;-88
2021/07/17 05:46:07;;;;;;;;;;;18.00;99.90;;;;;;5090980;28;19996;-90
2021/07/17 05:48:33;;;;;;;;;;;18.00;99.90;;;;;;5093049;28;20019;-88
2021/07/17 05:50:58;;;;;;;;;;;18.00;99.90;;;;;;5071194;28;19928;-91
2021/07/17 05:53:24;;;;;;;;;;;18.10;99.90;;;;;;5060152;28;20402;-89
2021/07/17 05:55:50;;;;;;;;;;;18.10;99.90;;;;;;5074724;28;19931;-88
2021/07/17 05:58:15;;;;;;;;;;;18.10;99.90;;;;;;5091108;28;19931;-89
2021/07/17 06:00:42;;;;;;;;;;;18.10;99.90;;;;;;5067549;28;19971;-87
2021/07/17 06:03:09;;;;;;;;;;;18.10;99.90;;;;;;5088486;28;19928;-89
2021/07/17 06:05:35;;;;;;;;;;;18.20;99.90;;;;;;5069027;28;19928;-88
2021/07/17 06:08:03;;;;;;;;;;;18.20;99.90;;;;;;5071588;28;20391;-91
2021/07/17 06:10:29;;;;;;;;;;;18.20;99.90;;;;;;5043723;28;19924;-87
2021/07/17 06:12:54;;;;;;;;;;;18.20;99.90;;;;;;5090742;28;19931;-88
2021/07/17 06:15:20;;;;;;;;;;;18.20;99.90;;;;;;5070636;28;19924;-88
2021/07/17 06:17:46;;;;;;;;;;;18.20;99.90;;;;;;5073127;28;19934;-89
2021/07/17 06:20:12;;;;;;;;;;;18.20;99.90;;;;;;5074615;28;19946;-87
2021/07/17 06:22:38;;;;;;;;;;;18.30;99.90;;;;;;5071767;28;19928;-87
2021/07/17 06:25:04;;;;;;;;;;;18.30;99.90;;;;;;5072199;28;19947;-88
2021/07/17 06:27:30;;;;;;;;;;;18.30;99.90;;;;;;5068720;28;19954;-87
2021/07/17 06:29:58;;;;;;;;;;;18.30;99.90;;;;;;5092448;28;20011;-89
2021/07/17 06:32:24;;;;;;;;;;;18.30;99.90;;;;;;5072328;28;20022;-90
2021/07/17 06:34:50;;;;;;;;;;;18.30;99.90;;;;;;5073765;28;19931;-89
2021/07/17 06:37:16;;;;;;;;;;;18.40;99.90;;;;;;5073033;28;19924;-89
2021/07/17 06:39:42;;;;;;;;;;;18.40;99.90;;;;;;5063608;28;20031;-90
2021/07/17 06:42:07;;;;;;;;;;;18.40;99.90;;;;;;5064954;28;20026;-91
2021/07/17 06:44:33;;;;;;;;;;;18.50;99.90;;;;;;5056295;28;19982;-89
2021/07/17 06:46:59;;;;;;;;;;;18.50;99.90;;;;;;5066088;28;20303;-90
2021/07/17 06:49:24;;;;;;;;;;;18.50;99.90;;;;;;5062980;28;20337;-89
2021/07/17 06:51:50;;;;;;;;;;;18.50;99.90;;;;;;5051305;28;20369;-90
2021/07/17 06:54:16;;;;;;;;;;;18.40;99.90;;;;;;5064514;28;19925;-92
2021/07/17 06:56:42;;;;;;;;;;;18.50;99.90;;;;;;5050577;28;20328;-92
2021/07/17 06:59:07;;;;;;;;;;;18.50;99.90;;;;;;5050487;28;19983;-93
2021/07/17 07:01:34;;;;;;;;;;;18.50;99.90;;;;;;5064670;28;20376;-90
2021/07/17 07:04:00;;;;;;;;;;;18.60;99.90;;;;;;5064463;28;19967;-91
2021/07/17 07:06:26;;;;;;;;;;;18.60;99.90;;;;;;5049439;28;19928;-90
2021/07/17 07:08:52;;;;;;;;;;;18.60;99.90;;;;;;5043452;28;19925;-90
2021/07/17 07:11:17;;;;;;;;;;;18.60;99.90;;;;;;5065553;28;19929;-91
2021/07/17 07:13:43;;;;;;;;;;;18.60;99.90;;;;;;5049539;28;19925;-89
2021/07/17 07:16:09;;;;;;;;;;;18.70;99.90;;;;;;5049203;28;19991;-90
2021/07/17 07:18:35;;;;;;;;;;;18.70;99.90;;;;;;5049670;28;19936;-89
2021/07/17 07:21:00;;;;;;;;;;;18.70;99.90;;;;;;5066605;28;19975;-88
2021/07/17 07:23:26;;;;;;;;;;;18.70;99.90;;;;;;5052347;28;20380;-90
2021/07/17 07:25:52;;;;;;;;;;;18.80;99.90;;;;;;5070689;28;19931;-88
2021/07/17 07:28:18;;;;;;;;;;;18.80;99.90;;;;;;5041671;28;20407;-88
2021/07/17 07:30:43;;;;;;;;;;;18.90;99.90;;;;;;5053252;28;20442;-89
2021/07/17 07:33:09;;;;;;;;;;;18.90;99.90;;;;;;5054605;28;19931;-88
2021/07/17 07:35:35;;;;;;;;;;;18.90;99.90;;;;;;5069323;28;19982;-88
2021/07/17 07:38:00;;;;;;;;;;;18.90;99.90;;;;;;5069875;28;19932;-88
2021/07/17 07:40:29;;;;;;;;;;;18.90;99.90;;;;;;5052205;28;20399;-88
2021/07/17 07:42:54;;;;;;;;;;;18.90;99.90;;;;;;5053445;28;19971;-89
2021/07/17 07:45:21;;;;;;;;;;;18.90;99.90;;;;;;5069078;28;20022;-89
2021/07/17 07:47:48;;;;;;;;;;;19.00;99.90;;;;;;5056243;28;20292;-88
2021/07/17 07:50:14;;;;;;;;;;;19.00;99.90;;;;;;5038815;28;19966;-90
2021/07/17 07:52:40;;;;;;;;;;;19.10;99.90;;;;;;5052613;28;19925;-88
2021/07/17 07:55:06;;;;;;;;;;;19.10;99.90;;;;;;5052085;28;19931;-87
2021/07/17 07:57:32;;;;;;;;;;;19.20;99.90;;;;;;5054426;28;19924;-88
2021/07/17 07:59:58;;;;;;;;;;;19.20;99.90;;;;;;5049580;28;19928;-88
2021/07/17 08:02:26;;;;;;;;;;;19.20;99.90;;;;;;5036694;28;19932;-88
2021/07/17 08:04:52;;;;;;;;;;;19.20;99.90;;;;;;5052149;28;19970;-89
2021/07/17 08:07:17;;;;;;;;;;;19.30;99.90;;;;;;5049614;28;20320;-92
2021/07/17 08:09:43;;;;;;;;;;;19.30;99.90;;;;;;5050595;28;20257;-91
2021/07/17 08:12:09;;;;;;;;;;;19.30;99.90;;;;;;5053737;28;20015;-88
2021/07/17 08:14:34;;;;;;;;;;;19.30;99.90;;;;;;5039987;28;19932;-89
2021/07/17 08:17:04;;;;;;;;;;;19.40;99.90;;;;;;5041790;28;20389;-88
2021/07/17 08:19:30;;;;;;;;;;;19.40;99.90;;;;;;5031975;28;19925;-87
2021/07/17 08:21:56;;;;;;;;;;;19.50;99.90;;;;;;5050347;28;19978;-88
2021/07/17 08:24:23;;;;;;;;;;;19.50;99.90;;;;;;5039435;28;19932;-88
2021/07/17 08:26:48;;;;;;;;;;;19.50;99.90;;;;;;5049648;28;19972;-88
2021/07/17 08:29:14;;;;;;;;;;;19.50;99.90;;;;;;5046647;28;19986;-88
2021/07/17 08:31:40;;;;;;;;;;;19.50;99.90;;;;;;5031325;28;19925;-88
2021/07/17 08:34:05;;;;;;;;;;;19.60;99.90;;;;;;5018730;28;19933;-88
2021/07/17 08:36:32;;;;;;;;;;;19.60;99.90;;;;;;5049809;28;19924;-89
2021/07/17 08:38:57;;;;;;;;;;;19.70;99.90;;;;;;5052436;28;19932;-88
2021/07/17 08:41:29;;;;;;;;;;;19.70;99.90;;;;;;5047298;28;20024;-89
2021/07/17 08:43:55;;;;;;;;;;;19.70;99.90;;;;;;5060967;28;20039;-89
2021/07/17 08:46:22;;;;;;;;;;;19.80;99.90;;;;;;5050321;28;20379;-90
2021/07/17 08:48:49;;;;;;;;;;;19.80;99.90;;;;;;5065989;28;20039;-88
2021/07/17 08:51:15;;;;;;;;;;;19.70;99.90;;;;;;5092090;28;19932;-87
2021/07/17 08:53:42;;;;;;;;;;;19.80;99.90;;;;;;5081256;28;20077;-88
2021/07/17 08:56:08;;;;;;;;;;;19.80;99.90;;;;;;5071827;28;19928;-89
2021/07/17 08:58:33;;;;;;;;;;;19.80;99.90;;;;;;5058463;28;19970;-88
2021/07/17 09:01:00;;;;;;;;;;;19.80;99.90;;;;;;5090122;28;19924;-89
2021/07/17 09:03:26;;;;;;;;;;;19.90;99.90;;;;;;5089244;28;19963;-88
2021/07/17 09:05:53;;;;;;;;;;;19.80;99.90;;;;;;5090584;28;20400;-87
2021/07/17 09:08:22;;;;;;;;;;;19.80;99.90;;;;;;5056314;28;19935;-88
2021/07/17 09:10:53;;;;;;;;;;;19.90;99.90;;;;;;5070133;28;19964;-88
2021/07/17 09:13:18;;;;;;;;;;;19.90;99.90;;;;;;5071288;28;19994;-91
2021/07/17 09:15:50;;;;;;;;;;;20.00;99.90;;;;;;5085182;28;20177;-89
2021/07/17 09:18:25;;;;;;;;;;;20.00;99.90;;;;;;5075405;28;19932;-87
2021/07/17 09:20:54;;;;;;;;;;;20.00;99.90;;;;;;5088613;28;19928;-90
2021/07/17 09:23:23;;;;;;;;;;;20.10;99.90;;;;;;5088133;28;20430;-89
2021/07/17 09:25:50;;;;;;;;;;;20.10;99.90;;;;;;5070153;28;19939;-89
2021/07/17 09:28:21;;;;;;;;;;;20.20;99.90;;;;;;5054222;28;19924;-88
2021/07/17 09:30:51;;;;;;;;;;;20.20;99.90;;;;;;5088593;28;19942;-89
2021/07/17 09:33:17;;;;;;;;;;;20.20;99.90;;;;;;5071899;28;19954;-89
2021/07/17 09:35:44;;;;;;;;;;;20.10;99.90;;;;;;5070580;28;19981;-88
2021/07/17 09:38:10;;;;;;;;;;;20.20;99.90;;;;;;5087983;28;19924;-89
2021/07/17 09:40:42;;;;;;;;;;;20.20;99.90;;;;;;5033747;28;20350;-88
2021/07/17 09:43:08;;;;;;;;;;;20.20;99.90;;;;;;5085138;28;19935;-90
2021/07/17 09:45:35;;;;;;;;;;;20.30;99.90;;;;;;5069007;28;19924;-90
2021/07/17 09:48:22;;;;;;;;;;;20.30;99.90;;;;;;5066947;28;20288;-88
2021/07/17 09:50:48;;;;;;;;;;;20.40;99.90;;;;;;5053470;28;20549;-89
2021/07/17 09:53:33;;;;;;;;;;;20.40;99.90;;;;;;5081017;28;19924;-88
2021/07/17 09:56:10;;;;;;;;;;;20.40;99.90;;;;;;5065624;28;20010;-88
2021/07/17 09:58:38;;;;;;;;;;;20.50;99.90;;;;;;5064870;28;19924;-87
2021/07/17 10:01:16;;;;;;;;;;;20.50;99.90;;;;;;5067759;28;19933;-88
2021/07/17 10:03:42;;;;;;;;;;;20.50;99.90;;;;;;5066326;28;19925;-88
2021/07/17 10:06:08;;;;;;;;;;;20.50;99.90;;;;;;5067130;28;20296;-88
2021/07/17 10:08:37;;;;;;;;;;;20.60;99.90;;;;;;5065934;28;19932;-87
2021/07/17 10:11:11;;;;;;;;;;;20.60;99.90;;;;;;5065619;28;19928;-87
2021/07/17 10:13:40;;;;;;;;;;;20.70;99.90;;;;;;5065339;28;19932;-89
2021/07/17 10:16:19;;;;;;;;;;;20.70;99.90;;;;;;5067558;28;19928;-90
2021/07/17 10:18:46;;;;;;;;;;;20.70;99.90;;;;;;5065069;28;19924;-89
2021/07/17 10:21:12;;;;;;;;;;;20.80;99.90;;;;;;5066977;28;19932;-87
2021/07/17 10:23:38;;;;;;;;;;;20.80;99.90;;;;;;5069217;28;19928;-87
2021/07/17 10:26:05;;;;;;;;;;;20.90;99.90;;;;;;5068209;28;19939;-88
2021/07/17 10:28:31;;;;;;;;;;;20.90;99.90;;;;;;5067557;28;19978;-89
2021/07/17 10:30:58;;;;;;;;;;;21.00;99.90;;;;;;5067991;28;19960;-88
2021/07/17 10:33:24;;;;;;;;;;;21.10;99.90;;;;;;5068603;28;19967;-88
2021/07/17 10:35:50;;;;;;;;;;;21.00;99.90;;;;;;5069109;28;19947;-88
2021/07/17 10:38:17;;;;;;;;;;;21.00;99.90;;;;;;5066828;28;19925;-88
2021/07/17 10:40:43;;;;;;;;;;;20.90;99.90;;;;;;5067302;28;19936;-89
2021/07/17 10:43:10;;;;;;;;;;;20.90;99.90;;;;;;5068635;28;20380;-87
2021/07/17 10:45:43;;;;;;;;;;;20.90;99.90;;;;;;5083311;28;19928;-87
2021/07/17 10:48:22;;;;;;;;;;;20.90;99.90;;;;;;5053243;28;19975;-87
2021/07/17 10:50:48;;;;;;;;;;;21.00;99.90;;;;;;5048245;28;19935;-88
2021/07/17 10:53:32;;;;;;;;;;;20.90;99.90;;;;;;5048448;28;19925;-87
2021/07/17 10:56:18;;;;;;;;;;;21.00;99.90;;;;;;5064833;28;19929;-88
2021/07/17 10:58:43;;;;;;;;;;;21.00;99.90;;;;;;5046292;28;20063;-88
2021/07/17 11:01:09;;;;;;;;;;;21.00;99.90;;;;;;5058184;28;20019;-87
2021/07/17 11:03:34;;;;;;;;;;;21.00;99.90;;;;;;5067494;28;19929;-89
2021/07/17 11:06:19;;;;;;;;;;;21.00;99.90;;;;;;5047710;28;19931;-87
2021/07/17 11:08:44;;;;;;;;;;;21.00;99.90;;;;;;5047812;28;19967;-87
2021/07/17 11:11:30;;;;;;;;;;;21.00;99.90;;;;;;5047601;28;19929;-87
2021/07/17 11:14:02;;;;;;;;;;;21.00;99.90;;;;;;5046950;28;19932;-87
2021/07/17 11:16:40;;;;;;;;;;;21.10;99.90;;;;;;5050709;28;19929;-88
2021/07/17 11:19:24;;;;;;;;;;;21.10;99.90;;;;;;5048126;28;20016;-87
2021/07/17 11:21:50;;;;;;;;;;;21.00;99.90;;;;;;5061202;28;20712;-87
2021/07/17 11:24:16;;;;;;;;;;;21.00;99.90;;;;;;5049080;28;19932;-87
2021/07/17 11:26:42;;;;;;;;;;;21.00;99.90;;;;;;5063779;28;19935;-87
2021/07/17 11:29:09;;;;;;;;;;;21.10;99.90;;;;;;5048051;28;19929;-87
2021/07/17 11:31:39;;;;;;;;;;;21.20;99.90;;;;;;5064086;28;19959;-88
2021/07/17 11:34:14;;;;;;;;;;;21.10;99.90;;;;;;5039069;28;19925;-87
2021/07/17 11:36:42;;;;;;;;;;;21.10;99.90;;;;;;5047153;28;19929;-88
2021/07/17 11:39:09;;;;;;;;;;;21.20;99.90;;;;;;5053066;28;19929;-88
2021/07/17 11:41:35;;;;;;;;;;;21.20;99.90;;;;;;5046326;28;19929;-88
2021/07/17 11:44:00;;;;;;;;;;;21.20;99.90;;;;;;5041749;28;19925;-87
2021/07/17 11:46:26;;;;;;;;;;;21.20;99.90;;;;;;5038541;28;19929;-87
2021/07/17 11:49:05;;;;;;;;;;;21.20;99.90;;;;;;5088452;28;19924;-88
2021/07/17 11:51:31;;;;;;;;;;;21.20;99.90;;;;;;5071236;28;19928;-87
2021/07/17 11:54:00;;;;;;;;;;;21.20;99.90;;;;;;5053393;28;19920;-87
2021/07/17 11:56:26;;;;;;;;;;;21.20;99.90;;;;;;5087528;28;19931;-87
2021/07/17 11:59:11;;;;;;;;;;;21.30;99.90;;;;;;5088056;28;20015;-87
2021/07/17 12:01:37;;;;;;;;;;;21.20;99.90;;;;;;5087975;28;20419;-88
2021/07/17 12:04:02;;;;;;;;;;;21.20;99.90;;;;;;5070169;28;20038;-88
2021/07/17 12:06:28;;;;;;;;;;;21.30;99.90;;;;;;5088688;28;20296;-88
2021/07/17 12:08:54;;;;;;;;;;;21.30;99.90;;;;;;5070718;28;20493;-87
2021/07/17 12:11:20;;;;;;;;;;;21.40;99.90;;;;;;5092712;28;19967;-87
2021/07/17 12:13:46;;;;;;;;;;;21.40;99.90;;;;;;5070819;28;19925;-88
2021/07/17 12:16:21;;;;;;;;;;;21.40;99.90;;;;;;5068943;28;19935;-88
2021/07/17 12:18:54;;;;;;;;;;;21.40;99.90;;;;;;5064985;28;19936;-86
2021/07/17 12:21:19;;;;;;;;;;;21.40;99.90;;;;;;5092653;28;20015;-87
2021/07/17 12:23:55;;;;;;;;;;;21.40;99.90;;;;;;5074026;28;20065;-87
2021/07/17 12:26:21;;;;;;;;;;;21.50;99.90;;;;;;5092654;28;19935;-87
2021/07/17 12:28:48;;;;;;;;;;;21.50;99.90;;;;;;5074120;28;20455;-87
2021/07/17 12:31:14;;;;;;;;;;;21.80;99.90;;;;;;5074682;28;20019;-87
2021/07/17 12:33:43;;;;;;;;;;;21.80;99.90;;;;;;5073855;28;20425;-89
2021/07/17 12:36:16;;;;;;;;;;;21.70;99.90;;;;;;5091915;28;19924;-89
2021/07/17 12:38:44;;;;;;;;;;;21.60;99.90;;;;;;5092313;28;19924;-89
2021/07/17 12:41:13;;;;;;;;;;;21.60;99.90;;;;;;5074479;28;20439;-87
2021/07/17 12:43:41;;;;;;;;;;;21.60;99.90;;;;;;5073890;28;19928;-90
2021/07/17 12:46:07;;;;;;;;;;;21.60;99.90;;;;;;5065677;28;19924;-88
2021/07/17 12:48:42;;;;;;;;;;;21.60;99.90;;;;;;5091838;28;20002;-87
2021/07/17 12:51:12;;;;;;;;;;;21.90;99.90;;;;;;5091146;28;19989;-87
2021/07/17 12:53:38;;;;;;;;;;;22.00;99.90;;;;;;5091996;28;19963;-87
2021/07/17 12:56:03;;;;;;;;;;;22.10;99.90;;;;;;5083046;28;19963;-88
2021/07/17 12:58:29;;;;;;;;;;;22.40;99.90;;;;;;5090739;28;20268;-88
2021/07/17 13:00:55;;;;;;;;;;;22.30;99.90;;;;;;5091342;28;19939;-88
2021/07/17 13:03:21;;;;;;;;;;;22.40;99.90;;;;;;5085022;28;20026;-88
2021/07/17 13:05:48;;;;;;;;;;;22.40;99.90;;;;;;5042567;28;20031;-87
2021/07/17 13:08:25;;;;;;;;;;;22.30;99.90;;;;;;5074093;28;19924;-90
2021/07/17 13:10:51;;;;;;;;;;;22.20;99.90;;;;;;5073496;28;19963;-89
2021/07/17 13:13:23;;;;;;;;;;;22.00;99.90;;;;;;5091732;28;19924;-88
2021/07/17 13:15:56;;;;;;;;;;;22.10;99.90;;;;;;5073214;28;19931;-87
2021/07/17 13:18:23;;;;;;;;;;;22.20;99.90;;;;;;5073159;28;19930;-89
2021/07/17 13:21:16;;;;;;;;;;;22.40;99.90;;;;;;5071049;28;19934;-88
2021/07/17 13:23:56;;;;;;;;;;;22.20;99.90;;;;;;5079559;28;19970;-88
2021/07/17 13:26:21;;;;;;;;;;;22.00;99.90;;;;;;5073404;28;19931;-89
2021/07/17 13:28:48;;;;;;;;;;;21.90;99.90;;;;;;5091122;28;19932;-89
2021/07/17 13:31:18;;;;;;;;;;;21.90;99.90;;;;;;5073734;28;20015;-88
2021/07/17 13:33:43;;;;;;;;;;;22.10;99.90;;;;;;5073540;28;20031;-89
2021/07/17 13:36:09;;;;;;;;;;;22.10;99.90;;;;;;5090746;28;20298;-88
2021/07/17 13:38:36;;;;;;;;;;;22.30;99.90;;;;;;5073449;28;20303;-88
2021/07/17 13:41:11;;;;;;;;;;;22.40;99.90;;;;;;5090867;28;19924;-88
2021/07/17 13:43:39;;;;;;;;;;;22.40;99.90;;;;;;5090057;28;20390;-88
2021/07/17 13:46:05;;;;;;;;;;;22.50;99.90;;;;;;5072421;28;20383;-88
2021/07/17 13:48:31;;;;;;;;;;;22.40;99.90;;;;;;5072944;28;19985;-88
2021/07/17 13:51:07;;;;;;;;;;;22.50;99.90;;;;;;5089135;28;19931;-89
2021/07/17 13:53:33;;;;;;;;;;;22.60;99.90;;;;;;5091036;28;20380;-88
2021/07/17 13:56:06;;;;;;;;;;;22.60;99.90;;;;;;5071694;28;19931;-90
2021/07/17 13:58:31;;;;;;;;;;;22.60;99.90;;;;;;5056077;28;20299;-89
2021/07/17 14:00:58;;;;;;;;;;;23.30;99.90;;;;;;5064326;28;19928;-88
2021/07/17 14:03:37;;;;;;;;;;;23.90;99.90;;;;;;5072412;28;19972;-89
2021/07/17 14:06:05;;;;;;;;;;;24.30;99.90;;;;;;5090044;28;19935;-88
2021/07/17 14:08:32;;;;;;;;;;;24.30;99.90;;;;;;5090838;28;19925;-88
2021/07/17 14:10:59;;;;;;;;;;;24.40;99.90;;;;;;5072252;28;20330;-88
2021/07/17 14:13:24;;;;;;;;;;;24.60;99.90;;;;;;5073069;28;19931;-89
2021/07/17 14:15:50;;;;;;;;;;;24.40;99.90;;;;;;5072025;28;20383;-89